Time;durP1;ratioP1;P1;durP2;ratioP2;P2;SDS_P1;SDS_P2;PMS_P1;PMS_P2;Temp;Humidity;BMP_temperature;BMP_pressure;BME280_temperature;BME280_humidity;BME280_pressure;Samples;Min_cycle;Max_cycle;Signal;HPM_P1;HPM_P2
2022/02/19 00:02:09;;;;;;;18.38;9.18;;;8.30;95.60;;;;;;5105506;28;20208;-93
2022/02/19 00:04:35;;;;;;;13.97;7.87;;;8.20;95.70;;;;;;5093913;28;20204;-92
2022/02/19 00:07:01;;;;;;;15.73;9.43;;;8.20;95.70;;;;;;5093837;28;20541;-93
2022/02/19 00:09:26;;;;;;;18.17;9.07;;;8.20;95.80;;;;;;5100135;28;20177;-92
2022/02/19 00:11:52;;;;;;;25.53;10.90;;;8.20;95.90;;;;;;5096178;28;20212;-92
2022/02/19 00:14:18;;;;;;;15.43;9.27;;;8.20;95.90;;;;;;5094261;28;20235;-89
2022/02/19 00:16:44;;;;;;;17.63;9.20;;;8.20;96.00;;;;;;5094500;28;20361;-93
2022/02/19 00:19:09;;;;;;;16.00;9.50;;;8.10;96.00;;;;;;5101432;28;20181;-91
2022/02/19 00:21:35;;;;;;;14.70;9.40;;;8.10;96.10;;;;;;5093291;28;20295;-92
2022/02/19 00:24:00;;;;;;;18.43;11.07;;;8.10;96.20;;;;;;5094790;28;20672;-89
2022/02/19 00:26:26;;;;;;;19.90;8.60;;;8.00;96.20;;;;;;5094627;28;20177;-89
2022/02/19 00:28:52;;;;;;;16.07;9.30;;;8.00;96.30;;;;;;5095033;28;20223;-92
2022/02/19 00:31:18;;;;;;;20.83;11.00;;;8.00;96.30;;;;;;5093897;28;20271;-92
2022/02/19 00:33:43;;;;;;;13.93;9.33;;;8.00;96.40;;;;;;5093931;28;20432;-89
2022/02/19 00:36:09;;;;;;;16.37;9.70;;;7.90;96.50;;;;;;5094547;28;21308;-93
2022/02/19 00:38:35;;;;;;;16.90;8.48;;;7.90;96.50;;;;;;5101928;28;20259;-93
2022/02/19 00:41:01;;;;;;;14.70;9.23;;;7.90;96.50;;;;;;5099110;28;20668;-89
2022/02/19 00:43:27;;;;;;;13.25;7.93;;;7.90;96.60;;;;;;5094409;28;20927;-93
2022/02/19 00:45:55;;;;;;;11.63;9.15;;;7.80;96.70;;;;;;5095081;28;20177;-89
2022/02/19 00:48:22;;;;;;;15.82;10.50;;;7.80;96.70;;;;;;5094935;28;20196;-93
2022/02/19 00:50:49;;;;;;;16.98;9.50;;;7.80;96.90;;;;;;5108087;28;20186;-92
2022/02/19 00:53:15;;;;;;;23.65;15.02;;;7.70;96.90;;;;;;5095120;28;20208;-93
2022/02/19 00:55:41;;;;;;;20.40;12.55;;;7.70;97.00;;;;;;5093625;28;20181;-93
2022/02/19 00:58:07;;;;;;;27.88;24.77;;;7.70;97.00;;;;;;5093264;28;20204;-92
2022/02/19 01:00:33;;;;;;;22.70;15.50;;;7.70;97.20;;;;;;5094270;28;20199;-86
2022/02/19 01:02:59;;;;;;;21.10;15.68;;;7.60;97.20;;;;;;5093418;28;20208;-89
2022/02/19 01:05:25;;;;;;;31.37;17.53;;;7.60;97.30;;;;;;5093398;28;20178;-89
2022/02/19 01:07:50;;;;;;;25.00;16.77;;;7.60;97.20;;;;;;5095064;28;20235;-93
2022/02/19 01:10:17;;;;;;;25.00;16.23;;;7.60;97.30;;;;;;5094131;28;20492;-92
2022/02/19 01:12:42;;;;;;;17.38;12.10;;;7.50;97.40;;;;;;5100040;28;20243;-93
2022/02/19 01:15:11;;;;;;;17.17;12.10;;;7.50;97.50;;;;;;5077760;28;20173;-93
2022/02/19 01:17:36;;;;;;;18.00;10.82;;;7.50;97.60;;;;;;5095643;28;20216;-92
2022/02/19 01:20:03;;;;;;;23.57;11.33;;;7.40;97.60;;;;;;5077626;28;20179;-92
2022/02/19 01:22:28;;;;;;;16.95;11.48;;;7.40;97.70;;;;;;5095718;28;20245;-89
2022/02/19 01:24:54;;;;;;;20.57;10.70;;;7.30;97.80;;;;;;5077118;28;20585;-92
2022/02/19 01:27:20;;;;;;;14.77;8.97;;;7.30;97.90;;;;;;5077148;28;20695;-89
2022/02/19 01:29:46;;;;;;;18.50;11.03;;;7.20;98.00;;;;;;5094980;28;20172;-92
2022/02/19 01:32:11;;;;;;;24.93;11.40;;;7.20;98.20;;;;;;5079474;28;20204;-93
2022/02/19 01:34:38;;;;;;;17.57;10.90;;;7.10;98.30;;;;;;5087288;28;20181;-91
2022/02/19 01:37:04;;;;;;;20.52;8.98;;;7.00;98.40;;;;;;5098564;28;20203;-92
2022/02/19 01:39:30;;;;;;;18.30;10.23;;;7.00;98.50;;;;;;5080271;28;20298;-91
2022/02/19 01:41:56;;;;;;;19.00;11.20;;;7.00;98.60;;;;;;5098766;28;20212;-89
2022/02/19 01:44:37;;;;;;;19.58;11.48;;;6.90;98.80;;;;;;5080640;28;20634;-92
2022/02/19 01:47:07;;;;;;;25.85;11.35;;;6.90;98.90;;;;;;5080855;28;20196;-92
2022/02/19 01:49:33;;;;;;;19.52;12.75;;;6.90;99.00;;;;;;5080388;28;20185;-92
2022/02/19 01:51:59;;;;;;;21.08;12.15;;;6.80;99.10;;;;;;5080876;28;20646;-92
2022/02/19 01:54:25;;;;;;;20.63;13.23;;;6.80;99.20;;;;;;5100050;28;20183;-92
2022/02/19 01:56:51;;;;;;;18.95;10.60;;;6.80;99.30;;;;;;5100336;28;20784;-89
2022/02/19 01:59:16;;;;;;;16.40;11.60;;;6.70;99.50;;;;;;5086970;28;20271;-89
2022/02/19 02:01:42;;;;;;;15.00;10.60;;;6.60;99.60;;;;;;5098108;28;20379;-89
2022/02/19 02:04:08;;;;;;;14.40;10.07;;;6.50;99.80;;;;;;5080032;28;20229;-92
2022/02/19 02:06:34;;;;;;;17.97;10.97;;;6.50;99.90;;;;;;5080109;28;20786;-92
2022/02/19 02:09:00;;;;;;;20.73;10.73;;;6.40;99.90;;;;;;5098380;28;20483;-89
2022/02/19 02:11:26;;;;;;;16.20;9.90;;;6.30;99.90;;;;;;5080710;28;20925;-94
2022/02/19 02:13:52;;;;;;;19.70;11.50;;;6.30;99.90;;;;;;5080685;28;20573;-93
2022/02/19 02:16:18;;;;;;;20.23;11.30;;;6.30;99.90;;;;;;5080577;28;20306;-93
2022/02/19 02:18:44;;;;;;;19.03;8.47;;;6.20;99.90;;;;;;5080498;28;20953;-89
2022/02/19 02:21:11;;;;;;;19.20;11.27;;;6.20;99.90;;;;;;5098518;28;20396;-89
2022/02/19 02:23:37;;;;;;;13.70;10.27;;;6.10;99.90;;;;;;5098880;28;20722;-89
2022/02/19 02:26:04;;;;;;;16.23;8.83;;;6.10;99.90;;;;;;5098413;28;20192;-92
2022/02/19 02:28:31;;;;;;;25.40;11.85;;;6.10;99.90;;;;;;5080358;28;20193;-92
2022/02/19 02:30:57;;;;;;;16.60;9.02;;;6.10;99.90;;;;;;5079769;28;20177;-93
2022/02/19 02:33:23;;;;;;;20.98;11.45;;;6.00;99.90;;;;;;5080562;28;20192;-89
2022/02/19 02:35:51;;;;;;;18.52;12.75;;;6.00;99.90;;;;;;5098426;28;20183;-89
2022/02/19 02:38:17;;;;;;;20.05;12.32;;;6.00;99.90;;;;;;5098424;28;20569;-93
2022/02/19 02:40:44;;;;;;;18.88;11.18;;;6.10;99.90;;;;;;5098051;28;20175;-92
2022/02/19 02:43:10;;;;;;;16.48;11.75;;;6.00;99.90;;;;;;5096153;28;20744;-93
2022/02/19 02:45:37;;;;;;;22.58;11.00;;;6.10;99.90;;;;;;5080597;28;20255;-89
2022/02/19 02:48:03;;;;;;;22.35;11.88;;;6.00;99.90;;;;;;5083142;28;20205;-90
2022/02/19 02:50:29;;;;;;;22.92;12.75;;;6.10;99.90;;;;;;5092794;28;20176;-92
2022/02/19 02:52:55;;;;;;;22.97;13.53;;;6.00;99.90;;;;;;5080607;28;20208;-89
2022/02/19 02:55:21;;;;;;;22.03;11.93;;;6.00;99.90;;;;;;5098203;28;20376;-87
2022/02/19 02:57:46;;;;;;;17.92;11.82;;;6.00;99.90;;;;;;5097666;28;20278;-93
2022/02/19 03:00:13;;;;;;;19.63;9.80;;;6.00;99.90;;;;;;5079315;28;20172;-91
2022/02/19 03:02:40;;;;;;;16.23;10.02;;;5.90;99.90;;;;;;5079161;28;20208;-92
2022/02/19 03:05:07;;;;;;;17.38;11.05;;;6.00;99.90;;;;;;5078711;28;20263;-89
2022/02/19 03:07:34;;;;;;;22.17;11.68;;;5.90;99.90;;;;;;5078978;28;20208;-89
2022/02/19 03:10:00;;;;;;;16.67;10.68;;;5.90;99.90;;;;;;5096553;28;20169;-89
2022/02/19 03:12:25;;;;;;;20.17;10.40;;;5.90;99.90;;;;;;5096595;28;20201;-89
2022/02/19 03:14:52;;;;;;;17.97;9.60;;;5.90;99.90;;;;;;5078334;28;20171;-88
2022/02/19 03:17:17;;;;;;;15.35;9.35;;;5.90;99.90;;;;;;5079018;28;20619;-92
2022/02/19 03:19:45;;;;;;;20.20;12.37;;;5.90;99.90;;;;;;5097022;28;20172;-89
2022/02/19 03:22:12;;;;;;;23.80;11.07;;;5.90;99.90;;;;;;5078559;28;20204;-89
2022/02/19 03:24:38;;;;;;;26.35;12.82;;;5.90;99.90;;;;;;5078110;28;20256;-89
2022/02/19 03:27:04;;;;;;;22.67;14.23;;;5.90;99.90;;;;;;5077873;28;20200;-92
2022/02/19 03:29:30;;;;;;;20.30;11.77;;;5.80;99.90;;;;;;5096124;28;20541;-89
2022/02/19 03:31:56;;;;;;;20.27;13.38;;;5.80;99.90;;;;;;5078774;28;20299;-92
2022/02/19 03:34:23;;;;;;;21.27;9.15;;;5.90;99.90;;;;;;5078694;28;20176;-92
2022/02/19 03:36:49;;;;;;;18.25;9.57;;;5.90;99.90;;;;;;5096412;28;20212;-92
2022/02/19 03:39:15;;;;;;;17.08;10.35;;;5.90;99.90;;;;;;5096129;28;20168;-89
2022/02/19 03:41:44;;;;;;;15.50;8.80;;;5.90;99.90;;;;;;5078678;28;20187;-92
2022/02/19 03:44:10;;;;;;;13.95;7.50;;;5.90;99.90;;;;;;5089288;28;20177;-89
2022/02/19 03:46:38;;;;;;;13.23;7.00;;;5.90;99.90;;;;;;5106073;28;20530;-89
2022/02/19 03:49:06;;;;;;;16.20;8.93;;;5.90;99.90;;;;;;5083900;28;20192;-89
2022/02/19 03:51:32;;;;;;;17.85;10.15;;;5.90;99.90;;;;;;5079341;28;20283;-89
2022/02/19 03:53:58;;;;;;;15.77;10.85;;;6.00;99.90;;;;;;5083596;28;20203;-89
2022/02/19 03:56:23;;;;;;;13.47;8.50;;;6.00;99.90;;;;;;5091215;28;20223;-93
2022/02/19 03:58:49;;;;;;;13.83;10.07;;;6.10;99.90;;;;;;5097215;28;20421;-89
2022/02/19 04:01:16;;;;;;;15.40;8.77;;;6.10;99.90;;;;;;5081362;28;20188;-88
2022/02/19 04:03:42;;;;;;;14.38;8.70;;;6.20;99.90;;;;;;5096320;28;20188;-89
2022/02/19 04:06:08;;;;;;;16.15;8.85;;;6.30;99.90;;;;;;5095986;28;20176;-93
2022/02/19 04:08:34;;;;;;;13.15;9.52;;;6.40;99.90;;;;;;5077688;28;20193;-89
2022/02/19 04:11:00;;;;;;;15.32;8.90;;;6.40;99.90;;;;;;5077743;28;20225;-89
2022/02/19 04:13:26;;;;;;;18.67;11.40;;;6.50;99.90;;;;;;5077775;28;20236;-93
2022/02/19 04:15:52;;;;;;;18.80;9.60;;;6.60;99.90;;;;;;5077660;28;20641;-93
2022/02/19 04:18:17;;;;;;;16.80;10.65;;;6.70;99.90;;;;;;5077605;28;20441;-93
2022/02/19 04:20:43;;;;;;;18.00;9.20;;;6.80;99.90;;;;;;5095475;28;20262;-88
2022/02/19 04:23:09;;;;;;;18.10;8.73;;;6.90;99.90;;;;;;5096393;28;20563;-89
2022/02/19 04:25:35;;;;;;;18.67;10.57;;;6.90;99.90;;;;;;5077744;28;20173;-92
2022/02/19 04:28:08;;;;;;;12.50;9.07;;;7.00;99.90;;;;;;5077722;28;20290;-89
2022/02/19 04:30:35;;;;;;;18.77;11.27;;;7.10;99.90;;;;;;5081335;28;20165;-89
2022/02/19 04:33:01;;;;;;;14.65;9.00;;;7.20;99.90;;;;;;5086872;28;20291;-93
2022/02/19 04:35:29;;;;;;;19.98;9.70;;;7.30;99.90;;;;;;5082896;28;20208;-89
2022/02/19 04:37:55;;;;;;;17.17;9.73;;;7.30;99.90;;;;;;5090088;28;20238;-93
2022/02/19 04:40:21;;;;;;;18.58;8.63;;;7.40;99.90;;;;;;5087053;28;20209;-88
2022/02/19 04:42:47;;;;;;;16.85;9.23;;;7.40;99.90;;;;;;5081067;28;20204;-88
2022/02/19 04:45:16;;;;;;;15.80;9.40;;;7.50;99.90;;;;;;5081800;28;20172;-89
2022/02/19 04:47:42;;;;;;;14.20;9.10;;;7.50;99.90;;;;;;5077476;28;20254;-93
2022/02/19 04:50:09;;;;;;;17.23;9.85;;;7.50;99.90;;;;;;5095789;28;20200;-90
2022/02/19 04:52:35;;;;;;;16.23;9.88;;;7.50;99.90;;;;;;5077071;28;20211;-89
2022/02/19 04:55:01;;;;;;;16.83;10.30;;;7.50;99.90;;;;;;5077077;28;20177;-92
2022/02/19 04:57:27;;;;;;;17.15;8.13;;;7.50;99.90;;;;;;5077677;28;20220;-93
2022/02/19 04:59:54;;;;;;;14.73;9.60;;;7.60;99.90;;;;;;5096069;28;20168;-91
2022/02/19 05:02:20;;;;;;;14.00;10.30;;;7.60;99.90;;;;;;5078131;28;20661;-89
2022/02/19 05:04:46;;;;;;;13.63;8.27;;;7.60;99.90;;;;;;5077464;28;20184;-90
2022/02/19 05:07:11;;;;;;;14.37;8.50;;;7.60;99.90;;;;;;5098206;28;20192;-92
2022/02/19 05:09:37;;;;;;;14.30;8.80;;;7.60;99.90;;;;;;5090054;28;20415;-92
2022/02/19 05:12:04;;;;;;;15.70;9.13;;;7.60;99.90;;;;;;5102245;28;20255;-92
2022/02/19 05:14:30;;;;;;;24.92;9.95;;;7.60;99.90;;;;;;5081174;28;20676;-89
2022/02/19 05:16:56;;;;;;;14.93;9.37;;;7.60;99.90;;;;;;5080848;28;20262;-89
2022/02/19 05:19:22;;;;;;;17.25;9.88;;;7.60;99.90;;;;;;5080705;28;20222;-92
2022/02/19 05:21:48;;;;;;;14.93;9.10;;;7.60;99.90;;;;;;5080195;28;20184;-93
2022/02/19 05:24:13;;;;;;;18.73;10.10;;;7.60;99.90;;;;;;5080522;28;20408;-92
2022/02/19 05:26:40;;;;;;;18.53;9.77;;;7.50;99.90;;;;;;5098849;28;20181;-93
2022/02/19 05:29:05;;;;;;;15.80;10.95;;;7.50;99.90;;;;;;5080591;28;20197;-93
2022/02/19 05:31:31;;;;;;;20.00;11.43;;;7.50;99.90;;;;;;5080594;28;20193;-92
2022/02/19 05:33:57;;;;;;;17.47;10.50;;;7.50;99.90;;;;;;5080557;28;20436;-89
2022/02/19 05:36:23;;;;;;;14.50;10.17;;;7.50;99.90;;;;;;5080300;28;20231;-89
2022/02/19 05:38:49;;;;;;;13.23;9.00;;;7.50;99.90;;;;;;5098432;28;20184;-93
2022/02/19 05:41:14;;;;;;;18.92;10.18;;;7.60;99.90;;;;;;5080607;28;20188;-92
2022/02/19 05:43:40;;;;;;;16.60;9.30;;;7.60;99.90;;;;;;5080015;28;20193;-93
2022/02/19 05:46:06;;;;;;;17.53;10.27;;;7.60;99.90;;;;;;5080124;28;20180;-90
2022/02/19 05:48:32;;;;;;;13.27;9.07;;;7.60;99.90;;;;;;5080303;28;20806;-93
2022/02/19 05:50:58;;;;;;;17.30;10.60;;;7.70;99.90;;;;;;5098768;28;20202;-93
2022/02/19 05:53:24;;;;;;;15.13;9.90;;;7.70;99.90;;;;;;5080196;28;20196;-89
2022/02/19 05:55:50;;;;;;;19.47;11.20;;;7.80;99.90;;;;;;5080214;28;20236;-90
2022/02/19 05:58:15;;;;;;;16.20;9.30;;;7.80;99.90;;;;;;5080564;28;20597;-93
2022/02/19 06:00:41;;;;;;;21.97;12.27;;;7.80;99.90;;;;;;5102464;28;20180;-93
2022/02/19 06:03:07;;;;;;;55.43;28.43;;;7.90;99.90;;;;;;5093076;28;20200;-89
2022/02/19 06:05:32;;;;;;;42.67;21.93;;;7.90;99.90;;;;;;5080930;28;20671;-88
2022/02/19 06:07:58;;;;;;;21.60;11.93;;;7.90;99.90;;;;;;5099718;28;20196;-90
2022/02/19 06:10:24;;;;;;;19.43;10.87;;;8.00;99.90;;;;;;5080400;28;20675;-93
2022/02/19 06:12:50;;;;;;;23.83;13.27;;;8.10;99.90;;;;;;5079866;28;20310;-89
2022/02/19 06:15:15;;;;;;;33.70;22.40;;;8.10;99.90;;;;;;5098212;28;20179;-92
2022/02/19 06:17:41;;;;;;;21.80;16.63;;;8.20;99.90;;;;;;5097919;28;20251;-93
2022/02/19 06:20:07;;;;;;;21.90;16.17;;;8.20;99.90;;;;;;5080897;28;20217;-89
2022/02/19 06:22:33;;;;;;;24.58;14.27;;;8.20;99.90;;;;;;5098402;28;20680;-89
2022/02/19 06:24:59;;;;;;;24.97;21.30;;;8.30;99.90;;;;;;5098103;28;20160;-89
2022/02/19 06:27:25;;;;;;;23.50;12.27;;;8.30;99.90;;;;;;5079893;28;20692;-92
2022/02/19 06:29:50;;;;;;;21.60;14.50;;;8.30;99.90;;;;;;5080669;28;20302;-91
2022/02/19 06:32:16;;;;;;;19.97;12.90;;;8.40;99.90;;;;;;5084922;28;20459;-93
2022/02/19 06:34:42;;;;;;;23.67;16.67;;;8.40;99.90;;;;;;5084148;28;20180;-89
2022/02/19 06:37:08;;;;;;;19.40;14.57;;;8.40;99.90;;;;;;5084291;28;20273;-89
2022/02/19 06:39:33;;;;;;;17.80;12.00;;;8.50;99.90;;;;;;5098480;28;20624;-89
2022/02/19 06:41:59;;;;;;;19.00;10.97;;;8.50;99.90;;;;;;5098582;28;20177;-93
2022/02/19 06:44:25;;;;;;;25.93;14.67;;;8.50;99.90;;;;;;5079934;28;20168;-89
2022/02/19 06:46:50;;;;;;;23.77;14.00;;;8.60;99.90;;;;;;5098060;28;20547;-93
2022/02/19 06:49:16;;;;;;;19.27;13.10;;;8.60;99.90;;;;;;5080115;28;20200;-92
2022/02/19 06:51:42;;;;;;;22.30;14.87;;;8.70;99.90;;;;;;5080205;28;20187;-89
2022/02/19 06:54:08;;;;;;;31.70;21.83;;;8.70;99.90;;;;;;5092890;28;20236;-89
2022/02/19 06:56:34;;;;;;;32.00;20.37;;;8.80;99.90;;;;;;5081057;28;20216;-88
2022/02/19 06:58:59;;;;;;;27.95;18.67;;;8.80;99.90;;;;;;5079067;28;20823;-89
2022/02/19 07:01:27;;;;;;;49.20;28.93;;;8.80;99.90;;;;;;5079357;28;20185;-91
2022/02/19 07:03:59;;;;;;;66.57;41.22;;;8.90;99.90;;;;;;5078949;28;20242;-89
2022/02/19 07:06:26;;;;;;;33.38;23.23;;;8.90;99.90;;;;;;5078648;28;20277;-93
2022/02/19 07:08:52;;;;;;;26.63;19.02;;;9.00;99.90;;;;;;5078921;28;20192;-89
2022/02/19 07:11:18;;;;;;;30.07;20.20;;;9.00;99.90;;;;;;5079053;28;20219;-89
2022/02/19 07:13:43;;;;;;;34.30;24.50;;;9.00;99.90;;;;;;5096529;28;20420;-89
2022/02/19 07:16:09;;;;;;;39.60;26.10;;;9.10;99.90;;;;;;5078419;28;20304;-93
2022/02/19 07:18:35;;;;;;;26.77;17.30;;;9.10;99.90;;;;;;5078373;28;20195;-92
2022/02/19 07:21:01;;;;;;;20.53;14.33;;;9.10;99.90;;;;;;5096532;28;20404;-94
2022/02/19 07:23:27;;;;;;;29.90;17.87;;;9.20;99.90;;;;;;5096731;28;20463;-93
2022/02/19 07:25:53;;;;;;;25.00;15.85;;;9.20;99.90;;;;;;5096807;28;20264;-93
2022/02/19 07:28:19;;;;;;;35.50;22.93;;;9.20;99.90;;;;;;5079320;28;20223;-94
2022/02/19 07:30:45;;;;;;;13.63;10.88;;;9.30;99.90;;;;;;5085435;28;20476;-89
2022/02/19 07:33:11;;;;;;;14.60;11.17;;;9.30;99.90;;;;;;5108013;28;20204;-89
2022/02/19 07:35:37;;;;;;;11.88;9.30;;;9.40;99.90;;;;;;5095104;28;20410;-88
2022/02/19 07:38:04;;;;;;;25.10;16.17;;;9.50;99.90;;;;;;5099164;28;20238;-90
2022/02/19 07:40:30;;;;;;;11.07;9.00;;;9.50;99.90;;;;;;5107514;28;20231;-93
2022/02/19 07:42:56;;;;;;;14.13;7.88;;;9.60;99.90;;;;;;5060925;28;20205;-89
2022/02/19 07:45:25;;;;;;;10.20;8.63;;;9.70;99.90;;;;;;5058206;28;20255;-90
2022/02/19 07:47:51;;;;;;;9.48;7.35;;;9.80;99.90;;;;;;5057255;28;20670;-92
2022/02/19 07:58:33;;;;;;;11.63;8.23;;;10.00;99.90;;;;;;5073768;28;20250;-85
2022/02/19 08:01:04;;;;;;;12.10;8.40;;;10.10;99.90;;;;;;5082619;28;20180;-87
2022/02/19 08:03:32;;;;;;;13.05;6.97;;;10.10;99.90;;;;;;5076630;28;20200;-86
2022/02/19 08:05:59;;;;;;;9.52;7.75;;;10.20;99.90;;;;;;5053628;28;20295;-85
2022/02/19 08:08:25;;;;;;;7.85;7.05;;;10.20;99.90;;;;;;5071726;28;20231;-87
2022/02/19 08:10:51;;;;;;;10.73;8.00;;;10.20;99.90;;;;;;5056442;28;20181;-89
2022/02/19 08:13:19;;;;;;;8.07;6.80;;;10.30;99.90;;;;;;5065505;28;20506;-88
2022/02/19 08:15:45;;;;;;;9.27;7.60;;;10.40;99.90;;;;;;5091866;28;20590;-85
2022/02/19 08:18:13;;;;;;;12.23;7.55;;;10.40;99.90;;;;;;5078605;28;20240;-86
2022/02/19 08:20:42;;;;;;;8.13;6.55;;;10.50;99.90;;;;;;5070789;28;20614;-87
2022/02/19 08:23:09;;;;;;;10.52;6.18;;;10.50;99.90;;;;;;5071243;28;20251;-84
2022/02/19 08:25:35;;;;;;;10.88;6.97;;;10.60;99.90;;;;;;5072454;28;20169;-88
2022/02/19 08:28:02;;;;;;;7.85;6.18;;;10.60;99.90;;;;;;5072150;28;20296;-86
2022/02/19 08:30:28;;;;;;;7.57;6.78;;;10.70;99.90;;;;;;5071903;28;20168;-86
2022/02/19 08:32:54;;;;;;;10.20;7.10;;;10.70;99.90;;;;;;5071917;28;20213;-89
2022/02/19 08:35:19;;;;;;;10.93;6.80;;;10.80;99.90;;;;;;5072057;28;20181;-85
2022/02/19 08:37:45;;;;;;;14.20;7.03;;;10.80;99.90;;;;;;5070890;28;20488;-86
2022/02/19 08:40:14;;;;;;;9.10;6.50;;;10.90;99.90;;;;;;5072130;28;20169;-85
2022/02/19 08:42:41;;;;;;;10.88;7.38;;;10.90;99.90;;;;;;5075857;28;20449;-86
2022/02/19 08:45:08;;;;;;;9.38;6.70;;;10.90;99.90;;;;;;5079619;28;20260;-91
2022/02/19 08:47:34;;;;;;;9.98;6.80;;;10.90;99.90;;;;;;5072569;28;20574;-89
2022/02/19 08:50:05;;;;;;;13.53;6.87;;;11.00;99.90;;;;;;5071392;28;20197;-86
2022/02/19 08:52:31;;;;;;;28.15;17.17;;;11.00;99.90;;;;;;5070880;28;20512;-88
2022/02/19 08:54:57;;;;;;;18.73;14.23;;;11.00;99.90;;;;;;5074537;28;20173;-89
2022/02/19 08:57:23;;;;;;;27.58;21.88;;;11.10;99.90;;;;;;5072980;28;20225;-92
2022/02/19 08:59:49;;;;;;;19.77;10.50;;;11.10;99.90;;;;;;5071508;28;20215;-88
2022/02/19 09:02:14;;;;;;;9.60;8.00;;;11.10;99.90;;;;;;5072965;28;20294;-90
2022/02/19 09:04:40;;;;;;;10.47;7.33;;;11.10;99.90;;;;;;5073641;28;20538;-86
2022/02/19 09:07:06;;;;;;;10.20;6.93;;;11.20;99.90;;;;;;5073793;28;20293;-87
2022/02/19 09:09:36;;;;;;;9.80;6.60;;;11.20;99.90;;;;;;5073407;28;20456;-89
2022/02/19 09:12:05;;;;;;;10.95;5.88;;;11.30;99.90;;;;;;5073110;28;20213;-86
2022/02/19 09:14:31;;;;;;;8.32;6.55;;;11.30;99.90;;;;;;5077259;28;20698;-86
2022/02/19 09:16:56;;;;;;;9.53;6.27;;;11.40;99.90;;;;;;5075708;28;20370;-87
2022/02/19 09:19:23;;;;;;;8.17;5.87;;;11.40;99.90;;;;;;5071473;28;20918;-85
2022/02/19 09:21:49;;;;;;;9.75;6.80;;;11.50;99.90;;;;;;5074019;28;20181;-89
2022/02/19 09:24:15;;;;;;;10.53;7.03;;;11.50;99.90;;;;;;5072909;28;20200;-88
2022/02/19 09:26:41;;;;;;;14.10;5.53;;;11.60;99.90;;;;;;5073966;28;20635;-92
2022/02/19 09:29:06;;;;;;;7.17;5.07;;;11.60;99.90;;;;;;5076127;28;20221;-89
2022/02/19 09:31:32;;;;;;;6.77;3.30;;;11.70;99.90;;;;;;5073809;28;20175;-88
2022/02/19 09:33:58;;;;;;;4.10;3.03;;;11.70;99.90;;;;;;5074414;28;20208;-91
2022/02/19 09:36:23;;;;;;;5.27;3.60;;;11.80;99.90;;;;;;5072622;28;20221;-90
2022/02/19 09:38:49;;;;;;;4.03;3.10;;;11.80;99.90;;;;;;5074110;28;20204;-91
2022/02/19 09:41:16;;;;;;;3.72;2.58;;;11.90;99.90;;;;;;5073240;28;20239;-89
2022/02/19 09:43:41;;;;;;;4.07;2.40;;;12.00;99.90;;;;;;5072810;28;20197;-86
2022/02/19 09:46:13;;;;;;;3.60;2.20;;;12.00;99.90;;;;;;5074169;28;20237;-92
2022/02/19 09:48:43;;;;;;;3.50;2.58;;;12.00;99.70;;;;;;5073847;28;20438;-90
2022/02/19 09:51:10;;;;;;;2.80;1.30;;;12.10;99.20;;;;;;5088134;28;20177;-90
2022/02/19 09:53:37;;;;;;;2.53;1.20;;;12.10;97.00;;;;;;5095131;28;20708;-91
2022/02/19 09:56:04;;;;;;;2.60;1.40;;;12.10;96.30;;;;;;5077091;28;20536;-91
2022/02/19 09:58:31;;;;;;;7.50;4.95;;;12.10;95.20;;;;;;5091700;28;20193;-87
2022/02/19 10:01:14;;;;;;;5.18;3.65;;;12.20;95.30;;;;;;5076448;28;20174;-87
2022/02/19 10:03:39;;;;;;;3.75;1.75;;;12.20;95.30;;;;;;5092120;28;20200;-90
2022/02/19 10:06:11;;;;;;;1.87;1.50;;;12.20;94.30;;;;;;5092946;28;20173;-90
2022/02/19 10:08:38;;;;;;;3.05;1.30;;;12.20;94.00;;;;;;5075153;28;20681;-89
2022/02/19 10:11:04;;;;;;;2.50;1.58;;;12.20;93.60;;;;;;5089290;28;20169;-89
2022/02/19 10:13:38;;;;;;;3.63;1.77;;;12.30;93.10;;;;;;5092779;28;20258;-85
2022/02/19 10:16:09;;;;;;;3.53;1.20;;;12.30;93.40;;;;;;5116637;28;20221;-86
2022/02/19 10:18:39;;;;;;;3.00;1.00;;;12.30;92.80;;;;;;5135973;27;20212;-90
2022/02/19 10:21:20;;;;;;;3.08;1.30;;;12.30;92.80;;;;;;5097332;28;20226;-85
2022/02/19 10:23:51;;;;;;;2.45;1.25;;;12.30;97.60;;;;;;5133920;27;20200;-86
2022/02/19 10:26:20;;;;;;;3.38;0.93;;;12.50;99.90;;;;;;5129208;27;20184;-90
2022/02/19 10:29:06;;;;;;;5.00;0.90;;;12.50;94.80;;;;;;5097305;28;20271;-85
2022/02/19 10:31:33;;;;;;;7.25;1.38;;;12.50;94.20;;;;;;5092382;28;20239;-86
2022/02/19 10:34:14;;;;;;;7.82;2.08;;;12.50;93.90;;;;;;5076979;28;20215;-88
2022/02/19 10:36:50;;;;;;;1.92;1.02;;;12.50;93.50;;;;;;5096768;28;20269;-85
2022/02/19 10:39:26;;;;;;;1.35;1.20;;;12.50;93.50;;;;;;5098695;28;20168;-90
2022/02/19 10:41:53;;;;;;;4.10;1.10;;;12.60;93.30;;;;;;5133130;27;20179;-86
2022/02/19 10:44:27;;;;;;;1.80;1.10;;;12.60;93.10;;;;;;5137254;27;20182;-90
2022/02/19 10:46:55;;;;;;;1.25;0.88;;;12.60;93.10;;;;;;5116021;28;20191;-90
2022/02/19 10:49:22;;;;;;;1.95;0.80;;;12.70;92.90;;;;;;5132119;27;20221;-85
2022/02/19 10:51:48;;;;;;;1.23;1.02;;;12.70;92.60;;;;;;5117554;27;20187;-86
2022/02/19 10:54:20;;;;;;;1.43;0.90;;;12.70;92.80;;;;;;5126432;27;20176;-89
2022/02/19 10:56:46;;;;;;;1.77;0.85;;;12.70;92.70;;;;;;5091752;28;20495;-89
2022/02/19 10:59:15;;;;;;;1.73;1.40;;;12.80;92.60;;;;;;5106576;28;20176;-86
2022/02/19 11:01:47;;;;;;;2.28;1.00;;;12.80;92.50;;;;;;5094162;28;20259;-90
2022/02/19 11:04:15;;;;;;;2.57;1.03;;;12.80;93.10;;;;;;5101125;28;20168;-89
2022/02/19 11:06:41;;;;;;;1.10;0.88;;;12.80;91.80;;;;;;5128796;27;20436;-85
2022/02/19 11:09:08;;;;;;;1.97;0.90;;;12.80;91.70;;;;;;5097328;28;20189;-85
2022/02/19 11:11:36;;;;;;;3.38;3.00;;;12.80;91.70;;;;;;5094027;28;20428;-85
2022/02/19 11:14:06;;;;;;;16.67;8.35;;;12.80;91.50;;;;;;5126829;27;20224;-85
2022/02/19 11:16:34;;;;;;;3.35;2.67;;;12.70;91.60;;;;;;5127157;27;20685;-85
2022/02/19 11:19:00;;;;;;;3.60;3.27;;;12.70;91.40;;;;;;5127657;27;20204;-86
2022/02/19 11:21:30;;;;;;;4.78;3.03;;;12.70;91.50;;;;;;5127632;27;20436;-89
2022/02/19 11:24:07;;;;;;;3.38;2.97;;;12.70;91.50;;;;;;5127520;27;20246;-85
2022/02/19 11:26:33;;;;;;;3.58;2.00;;;12.70;91.50;;;;;;5128529;27;20510;-90
2022/02/19 11:29:12;;;;;;;3.33;2.33;;;12.70;91.70;;;;;;5128259;27;20199;-85
2022/02/19 11:31:40;;;;;;;2.47;1.52;;;12.70;91.30;;;;;;5130540;27;20765;-89
2022/02/19 11:34:08;;;;;;;2.60;1.60;;;12.70;91.10;;;;;;5130370;27;20196;-86
2022/02/19 11:36:34;;;;;;;1.30;1.17;;;12.70;91.10;;;;;;5104033;28;20215;-85
2022/02/19 11:39:05;;;;;;;3.50;1.80;;;12.70;90.80;;;;;;5137977;27;20202;-89
2022/02/19 11:41:40;;;;;;;1.70;1.45;;;12.70;90.70;;;;;;5121572;28;20439;-85
2022/02/19 11:44:23;;;;;;;2.78;1.00;;;12.70;90.90;;;;;;5105739;28;20720;-86
2022/02/19 11:46:53;;;;;;;1.42;1.30;;;12.70;90.50;;;;;;5108934;28;20187;-90
2022/02/19 11:49:30;;;;;;;2.15;1.17;;;12.70;90.50;;;;;;5131087;27;20175;-86
2022/02/19 11:52:18;;;;;;;1.50;1.00;;;12.70;90.30;;;;;;5131058;27;20636;-90
2022/02/19 11:54:43;;;;;;;3.10;1.20;;;12.60;90.00;;;;;;5112570;28;20172;-90
2022/02/19 11:57:14;;;;;;;1.73;1.10;;;12.60;90.10;;;;;;5128543;27;20280;-87
2022/02/19 11:59:46;;;;;;;1.67;1.20;;;12.70;89.90;;;;;;5127462;27;20929;-90
2022/02/19 12:02:16;;;;;;;1.47;1.00;;;12.70;89.30;;;;;;5088038;28;20422;-86
2022/02/19 12:04:42;;;;;;;2.30;1.50;;;12.70;89.50;;;;;;5090761;28;20413;-86
2022/02/19 12:07:07;;;;;;;3.25;1.92;;;12.70;89.20;;;;;;5092844;28;20471;-89
2022/02/19 12:09:53;;;;;;;3.80;1.63;;;12.70;88.60;;;;;;5081156;28;20172;-89
2022/02/19 12:12:19;;;;;;;2.17;1.02;;;12.70;88.70;;;;;;5130227;27;20211;-90
2022/02/19 12:14:50;;;;;;;6.10;1.20;;;12.70;88.30;;;;;;5109494;28;20187;-89
2022/02/19 12:17:21;;;;;;;2.22;1.52;;;12.70;88.00;;;;;;5110399;28;20838;-90
2022/02/19 12:20:04;;;;;;;4.70;2.47;;;12.70;89.30;;;;;;5110529;28;20191;-86
2022/02/19 12:22:41;;;;;;;20.83;11.00;;;12.70;87.50;;;;;;5111135;28;20230;-90
2022/02/19 12:25:13;;;;;;;10.45;6.63;;;12.70;87.50;;;;;;5077502;28;20201;-86
2022/02/19 12:27:40;;;;;;;20.35;14.55;;;12.70;87.30;;;;;;5097136;28;20197;-90
2022/02/19 12:30:26;;;;;;;18.45;12.45;;;12.70;88.10;;;;;;5096322;28;20541;-86
2022/02/19 12:32:58;;;;;;;4.88;2.55;;;12.70;88.30;;;;;;5096678;28;20598;-90
2022/02/19 12:35:54;;;;;;;4.18;3.55;;;12.70;88.50;;;;;;5096185;28;20160;-86
2022/02/19 12:38:20;;;;;;;2.83;2.25;;;12.70;88.60;;;;;;5089625;28;20241;-90
2022/02/19 12:40:45;;;;;;;9.03;6.40;;;12.60;89.00;;;;;;5125310;28;20167;-85
2022/02/19 12:43:17;;;;;;;8.63;5.60;;;12.60;89.00;;;;;;5110585;28;20264;-87
2022/02/19 12:45:44;;;;;;;9.50;5.22;;;12.60;88.90;;;;;;5104810;28;20201;-90
2022/02/19 12:48:10;;;;;;;8.02;4.78;;;12.60;89.20;;;;;;5103417;28;20564;-90
2022/02/19 12:50:36;;;;;;;3.90;2.50;;;12.60;89.40;;;;;;5095282;28;20266;-90
2022/02/19 12:53:03;;;;;;;4.47;3.43;;;12.60;89.80;;;;;;5114303;28;20231;-90